KCHS/CHS METAR and TAF weather

Enter ICAO airport designator
Station Type Date Time Source
KCHS METAR 2019/10/15 08:31 UTC NOAA

KCHS 150831Z 01004KT 9SM MIFG SCT002 BKN250 18/17 A3006 RMK AO2 T01780172


Station Type Date Time Source
KCHS Decoded METAR 2019/10/15 08:31 UTC NOAA

CHARLESTON INT'L AIRPORT, SC, United States (KCHS) 32-54N 080-02W 13M
Oct 15, 2019 - 04:31 AM EDT / 2019.10.15 0831 UTC
Wind: from the N (010 degrees) at 5 MPH (4 KT):0
Visibility: 9 mile(s):0
Sky conditions: mostly cloudy
Weather: shallow fog
Temperature: 64.0 F (17.8 C)
Dew Point: 63.0 F (17.2 C)
Relative Humidity: 96%
Pressure (altimeter): 30.06 in. Hg (1017 hPa)
ob: KCHS 150831Z 01004KT 9SM MIFG SCT002 BKN250 18/17 A3006 RMK AO2 T01780172
cycle: 8

Station Type Date Time Source
KCHS TAF 2019/10/15 06:36 UTC NOAA

TAF KCHS 150535Z 1506/1606 00000KT 6SM MIFG BKN250
FM150900 03005KT P6SM BKN150
FM151800 08006KT P6SM -RA SCT050 OVC090
FM152100 10007KT 5SM -RA BR SCT025 OVC050
FM160300 08008KT 3SM RA BR SCT008 OVC012

Example: see airport list